Time;durP1;ratioP1;P1;durP2;ratioP2;P2;SDS_P1;SDS_P2;PMS_P1;PMS_P2;Temp;Humidity;BMP_temperature;BMP_pressure;BME280_temperature;BME280_humidity;BME280_pressure;Samples;Min_cycle;Max_cycle;Signal;HPM_P1;HPM_P2
2021/07/19 00:04:12;;;;;;;1999.90;999.90;;;;;;;22.01;64.08;101365.50;15735436;28;20049;-59
2021/07/19 00:11:54;;;;;;;1999.90;999.90;;;;;;;21.75;63.31;101379.91;15764571;28;20099;-57
2021/07/19 00:27:29;;;;;;;1999.90;999.90;;;;;;;21.57;60.89;101372.09;15722053;28;20291;-55
2021/07/19 00:35:09;;;;;;;1999.90;999.90;;;;;;;21.28;61.22;101364.50;15743534;28;20465;-54
2021/07/19 00:42:44;;;;;;;1999.90;999.90;;;;;;;21.23;60.70;101373.34;15787167;28;20465;-56
2021/07/19 00:50:40;;;;;;;;;;;;;;;;;;;;;
2021/07/19 00:58:39;;;;;;;1999.90;999.90;;;;;;;20.95;62.29;101371.03;15725972;28;20560;-60
2021/07/19 01:06:21;;;;;;;1999.90;999.90;;;;;;;21.08;61.48;101389.41;15704335;28;20382;-61
2021/07/19 01:14:02;;;;;;;1999.90;999.90;;;;;;;21.07;62.06;101381.28;15754053;28;20156;-59
2021/07/19 01:22:16;;;;;;;1999.90;999.90;;;;;;;20.78;61.18;101397.16;15718295;28;20040;-58
2021/07/19 01:30:03;;;;;;;1999.90;999.90;;;;;;;20.66;60.66;101409.56;15700073;28;20071;-59
2021/07/19 01:37:54;;;;;;;1999.90;999.90;;;;;;;20.52;60.48;101410.19;15720507;28;20504;-56
2021/07/19 01:45:48;;;;;;;1999.90;999.90;;;;;;;20.24;60.70;101421.94;15780092;28;20048;-57
2021/07/19 01:53:31;;;;;;;1999.90;999.90;;;;;;;20.00;62.06;101422.34;15722866;28;20048;-58
2021/07/19 02:01:13;;;;;;;1999.90;999.90;;;;;;;19.72;62.21;101425.53;15685318;28;20505;-55
2021/07/19 02:08:49;;;;;;;1999.90;999.90;;;;;;;19.76;62.31;101424.41;15738137;28;20166;-53
2021/07/19 02:16:28;;;;;;;1999.90;999.90;;;;;;;19.54;63.33;101420.34;15698981;28;20044;-59
2021/07/19 02:24:03;;;;;;;1999.90;999.90;;;;;;;19.79;62.39;101426.47;15703188;28;20048;-54
2021/07/19 02:31:46;;;;;;;1999.90;999.90;;;;;;;19.14;63.09;101436.97;15718865;28;20481;-56
2021/07/19 02:39:51;;;;;;;1999.90;999.90;;;;;;;19.26;62.56;101428.31;15717954;28;20068;-56
2021/07/19 02:47:53;;;;;;;1999.90;999.90;;;;;;;18.84;64.03;101451.72;15726764;28;20412;-56
2021/07/19 02:55:30;;;;;;;1999.90;999.90;;;;;;;18.89;62.73;101437.28;15715546;28;20056;-54
2021/07/19 03:03:08;;;;;;;1999.90;999.90;;;;;;;19.07;62.99;101442.47;15735852;28;20041;-57
2021/07/19 03:10:54;;;;;;;1999.90;999.90;;;;;;;18.72;64.72;101452.69;15771741;28;20050;-54
2021/07/19 03:19:13;;;;;;;1999.90;999.90;;;;;;;18.56;62.64;101463.22;15739648;28;20032;-56
2021/07/19 03:26:51;;;;;;;1999.90;999.90;;;;;;;18.29;62.70;101472.66;15725250;28;20209;-58
2021/07/19 03:34:33;;;;;;;1999.90;999.90;;;;;;;18.36;62.19;101478.50;15734220;28;20052;-56
2021/07/19 03:42:11;;;;;;;1999.90;999.90;;;;;;;18.06;62.70;101476.16;15742740;28;20055;-53
2021/07/19 03:50:04;;;;;;;1999.90;999.90;;;;;;;18.10;63.63;101485.53;15722153;28;20493;-57
2021/07/19 03:58:08;;;;;;;1999.90;999.90;;;;;;;18.02;62.55;101497.81;15739472;28;20068;-56
2021/07/19 04:05:47;;;;;;;1999.90;999.90;;;;;;;17.95;62.76;101494.03;15727529;28;20075;-57
2021/07/19 04:13:35;;;;;;;1999.90;999.90;;;;;;;18.13;62.40;101492.44;15785896;28;20496;-56
2021/07/19 04:21:13;;;;;;;1999.90;999.90;;;;;;;18.01;62.23;101484.06;15727338;28;20049;-57
2021/07/19 04:28:50;;;;;;;1999.90;999.90;;;;;;;18.00;61.99;101505.03;15726557;28;20505;-60
2021/07/19 04:36:36;;;;;;;1999.90;999.90;;;;;;;18.06;61.94;101500.75;15743889;28;20044;-61
2021/07/19 04:44:09;;;;;;;1999.90;999.90;;;;;;;17.99;60.76;101503.38;15742960;28;20135;-58
2021/07/19 04:51:46;;;;;;;1999.90;999.90;;;;;;;18.25;61.55;101512.13;15743610;28;20139;-59
2021/07/19 04:59:28;;;;;;;1999.90;999.90;;;;;;;18.39;60.73;101506.81;15725166;28;20044;-58
2021/07/19 05:07:11;;;;;;;1999.90;999.90;;;;;;;18.47;60.00;101510.63;15780627;22;20047;-66
2021/07/19 05:14:48;;;;;;;1999.90;999.90;;;;;;;18.53;60.44;101517.63;15745521;28;20412;-64
2021/07/19 05:22:22;;;;;;;1999.90;999.90;;;;;;;18.74;59.70;101523.81;15707646;28;21783;-65
2021/07/19 05:38:28;;;;;;;1999.90;999.90;;;;;;;18.73;59.07;101515.69;15673559;28;20055;-65
2021/07/19 05:46:25;;;;;;;1999.90;999.90;;;;;;;18.96;58.63;101525.09;15641429;28;20048;-63
2021/07/19 05:54:04;;;;;;;1999.90;999.90;;;;;;;19.35;57.56;101527.13;15646403;28;20048;-65
2021/07/19 06:01:54;;;;;;;1999.90;999.90;;;;;;;19.65;57.97;101528.16;15697672;28;20604;-65
2021/07/19 06:09:30;;;;;;;1999.90;999.90;;;;;;;19.93;58.85;101533.53;15662004;28;20048;-64
2021/07/19 06:17:14;;;;;;;1999.90;999.90;;;;;;;20.41;54.58;101542.41;15679847;28;20101;-65
2021/07/19 06:24:51;;;;;;;1999.90;999.90;;;;;;;20.56;52.67;101540.66;15663920;28;20057;-65
2021/07/19 06:32:37;;;;;;;1999.90;999.90;;;;;;;20.09;53.66;101539.88;15680455;28;20041;-65
2021/07/19 06:40:20;;;;;;;1999.90;999.90;;;;;;;20.46;54.29;101542.13;15662465;28;20048;-65
2021/07/19 06:47:52;;;;;;;1999.90;999.90;;;;;;;21.00;52.02;101533.19;15661035;28;20128;-65
2021/07/19 06:55:29;;;;;;;1999.90;999.90;;;;;;;21.31;52.67;101540.53;15644834;28;20049;-65
2021/07/19 07:03:07;;;;;;;1999.90;999.90;;;;;;;21.11;51.86;101543.88;15660351;28;20417;-64
2021/07/19 07:11:00;;;;;;;1999.90;999.90;;;;;;;22.30;50.18;101531.44;15644487;28;20044;-65
2021/07/19 07:18:33;;;;;;;1999.90;999.90;;;;;;;21.51;52.34;101538.34;15677523;28;20073;-66
2021/07/19 07:26:13;;;;;;;1999.90;999.90;;;;;;;21.94;50.51;101552.97;15677151;28;20052;-65
2021/07/19 07:33:47;;;;;;;1999.90;999.90;;;;;;;21.74;50.70;101528.84;15642578;28;20045;-64
2021/07/19 07:41:21;;;;;;;1999.90;999.90;;;;;;;21.85;51.33;101530.56;15658446;28;20494;-64
2021/07/19 07:48:54;;;;;;;1999.90;999.90;;;;;;;22.33;49.18;101524.13;15675768;28;20417;-64
2021/07/19 07:56:29;;;;;;;1999.90;999.90;;;;;;;22.38;48.92;101516.03;15675802;28;20041;-64
2021/07/19 08:04:05;;;;;;;1999.90;999.90;;;;;;;22.00;50.69;101528.69;15657985;28;20436;-65
2021/07/19 08:11:39;;;;;;;1999.90;999.90;;;;;;;21.93;50.55;101522.94;15657769;28;20045;-63
2021/07/19 08:19:12;;;;;;;1999.90;999.90;;;;;;;22.04;51.57;101517.34;15675670;28;20448;-65
2021/07/19 08:26:46;;;;;;;1999.90;999.90;;;;;;;21.79;52.44;101508.59;15675090;28;20037;-65
2021/07/19 08:34:18;;;;;;;1999.90;999.90;;;;;;;22.03;50.87;101529.94;15675262;28;20045;-65
2021/07/19 08:41:53;;;;;;;1999.90;999.90;;;;;;;21.82;50.66;101531.34;15667280;28;20421;-65
2021/07/19 08:49:29;;;;;;;1999.90;999.90;;;;;;;22.21;50.11;101521.59;15674812;28;20283;-65
2021/07/19 08:57:05;;;;;;;1999.90;999.90;;;;;;;21.85;47.96;101521.22;15687243;28;20047;-64
2021/07/19 09:04:50;;;;;;;1999.90;999.90;;;;;;;24.02;46.15;101510.25;15685391;28;20505;-65
2021/07/19 09:12:34;;;;;;;1999.90;999.90;;;;;;;24.14;43.57;101498.44;15684438;28;20048;-64
2021/07/19 09:20:18;;;;;;;1999.90;999.90;;;;;;;22.71;47.36;101497.97;15667377;28;20041;-65
2021/07/19 09:27:58;;;;;;;1999.90;999.90;;;;;;;22.54;48.43;101500.72;15683584;28;20509;-65
2021/07/19 09:35:32;;;;;;;1999.90;999.90;;;;;;;22.62;48.63;101503.22;15682908;28;20049;-63
2021/07/19 09:43:16;;;;;;;1999.90;999.90;;;;;;;22.78;47.89;101502.88;15682570;28;20401;-63
2021/07/19 09:50:52;;;;;;;1999.90;999.90;;;;;;;22.01;49.11;101499.06;15664059;28;20049;-64
2021/07/19 09:58:25;;;;;;;1999.90;999.90;;;;;;;21.89;48.61;101499.38;15681726;28;20124;-64
2021/07/19 10:06:08;;;;;;;1999.90;999.90;;;;;;;22.67;48.05;101499.97;15682409;28;20231;-64
2021/07/19 10:13:47;;;;;;;1999.90;999.90;;;;;;;21.64;50.43;101496.28;15681861;28;20490;-65
2021/07/19 10:21:20;;;;;;;1999.90;999.90;;;;;;;21.62;51.44;101498.69;15679992;28;20037;-65
2021/07/19 10:28:54;;;;;;;1999.90;999.90;;;;;;;22.23;49.39;101494.41;15661570;28;20504;-66
2021/07/19 10:36:31;;;;;;;1999.90;999.90;;;;;;;24.22;48.50;101488.66;15679082;28;20045;-63
2021/07/19 10:44:06;;;;;;;1999.90;999.90;;;;;;;23.49;46.81;101480.44;15678862;28;20104;-63
2021/07/19 10:51:41;;;;;;;1999.90;999.90;;;;;;;22.52;49.21;101480.41;15677942;28;20053;-64
2021/07/19 10:59:30;;;;;;;1999.90;999.90;;;;;;;22.20;49.32;101486.69;15659439;28;20413;-63
2021/07/19 11:07:11;;;;;;;1999.90;999.90;;;;;;;22.15;51.36;101490.69;15678303;28;20452;-62
2021/07/19 11:14:47;;;;;;;1999.90;999.90;;;;;;;23.01;49.74;101491.25;15677480;28;20460;-62
2021/07/19 11:22:23;;;;;;;1999.90;999.90;;;;;;;23.79;50.28;101485.81;15659179;28;20120;-62
2021/07/19 11:30:03;;;;;;;1999.90;999.90;;;;;;;24.07;47.73;101490.72;15658676;28;20076;-61
2021/07/19 11:37:37;;;;;;;1999.90;999.90;;;;;;;23.04;48.29;101479.88;15676609;28;20120;-61
2021/07/19 11:45:13;;;;;;;1999.90;999.90;;;;;;;23.13;49.87;101490.06;15676732;28;20045;-60
2021/07/19 11:52:47;;;;;;;1999.90;999.90;;;;;;;24.39;47.98;101489.91;15658423;28;20486;-62
2021/07/19 12:00:30;;;;;;;1999.90;999.90;;;;;;;25.07;49.49;101484.84;15676111;28;20053;-62
2021/07/19 12:08:05;;;;;;;1999.90;999.90;;;;;;;24.25;45.94;101478.47;15675749;28;20072;-62
2021/07/19 12:15:39;;;;;;;1999.90;999.90;;;;;;;23.87;47.76;101484.59;15668695;28;20517;-61
2021/07/19 12:23:12;;;;;;;1999.90;999.90;;;;;;;22.74;50.11;101479.31;15653765;28;20413;-61
2021/07/19 12:30:46;;;;;;;1999.90;999.90;;;;;;;22.83;49.40;101474.06;15652722;28;20041;-61
2021/07/19 12:38:18;;;;;;;1999.90;999.90;;;;;;;23.05;51.32;101469.31;15668854;28;20052;-61
2021/07/19 12:45:52;;;;;;;1999.90;999.90;;;;;;;24.41;45.61;101471.16;15686412;28;20049;-61
2021/07/19 12:53:32;;;;;;;1999.90;999.90;;;;;;;24.81;45.48;101471.06;15668082;28;20069;-61
2021/07/19 13:01:13;;;;;;;1999.90;999.90;;;;;;;23.31;48.09;101466.13;15667667;28;20037;-59
2021/07/19 13:08:45;;;;;;;1999.90;999.90;;;;;;;23.11;48.22;101473.38;15666219;28;20405;-60
2021/07/19 13:16:24;;;;;;;1999.90;999.90;;;;;;;22.58;50.36;101473.09;15665663;28;20506;-61
2021/07/19 13:23:56;;;;;;;1999.90;999.90;;;;;;;22.78;49.77;101463.06;15665333;28;20041;-61
2021/07/19 13:31:30;;;;;;;1999.90;999.90;;;;;;;23.26;49.65;101466.53;15664786;28;20095;-61
2021/07/19 13:39:02;;;;;;;1999.90;999.90;;;;;;;23.26;48.28;101457.19;15681710;28;20053;-62
2021/07/19 13:46:36;;;;;;;1999.90;999.90;;;;;;;23.30;49.15;101453.13;15662662;28;20068;-62
2021/07/19 13:54:08;;;;;;;1999.90;999.90;;;;;;;23.77;47.99;101453.25;15680881;28;20071;-62
2021/07/19 14:01:42;;;;;;;1999.90;999.90;;;;;;;23.54;49.86;101453.56;15662933;28;20091;-63
2021/07/19 14:09:15;;;;;;;1999.90;999.90;;;;;;;23.37;47.02;101446.63;15680989;28;20044;-63
2021/07/19 14:16:48;;;;;;;1999.90;999.90;;;;;;;23.35;47.80;101451.13;15662258;28;20095;-62
2021/07/19 14:24:23;;;;;;;1999.90;999.90;;;;;;;23.36;46.74;101445.00;15662852;28;20040;-62
2021/07/19 14:31:56;;;;;;;1999.90;999.90;;;;;;;23.53;48.98;101437.69;15661417;28;20053;-63
2021/07/19 14:39:28;;;;;;;1999.90;999.90;;;;;;;24.17;45.25;101435.69;15678583;28;20061;-62
2021/07/19 14:47:02;;;;;;;1999.90;999.90;;;;;;;24.17;45.23;101426.31;15678964;28;20493;-63
2021/07/19 14:54:34;;;;;;;1999.90;999.90;;;;;;;23.66;45.13;101421.09;15661560;28;20072;-62
2021/07/19 15:02:11;;;;;;;1999.90;999.90;;;;;;;23.95;46.37;101421.88;15674063;28;20049;-61
2021/07/19 15:09:43;;;;;;;1999.90;999.90;;;;;;;24.09;46.68;101416.19;15669934;28;20045;-60
2021/07/19 15:17:19;;;;;;;1999.90;999.90;;;;;;;24.04;46.19;101413.72;15660665;28;20045;-59
2021/07/19 15:24:52;;;;;;;1999.90;999.90;;;;;;;23.99;46.77;101405.59;15662859;28;20033;-61
2021/07/19 15:32:26;;;;;;;1999.90;999.90;;;;;;;23.68;46.26;101396.66;15669789;28;20487;-62
2021/07/19 15:39:59;;;;;;;1999.90;999.90;;;;;;;23.77;45.65;101396.25;15649329;28;20041;-62
2021/07/19 15:47:32;;;;;;;1999.90;999.90;;;;;;;23.73;48.05;101392.56;15628030;28;20643;-61
2021/07/19 15:55:06;;;;;;;1999.90;999.90;;;;;;;23.72;43.81;101399.50;15639148;28;20041;-60
2021/07/19 16:02:40;;;;;;;1999.90;999.90;;;;;;;23.34;44.62;101399.00;15680123;28;20440;-59
2021/07/19 16:10:13;;;;;;;1999.90;999.90;;;;;;;23.27;45.77;101393.34;15665922;28;20134;-63
2021/07/19 16:17:47;;;;;;;1999.90;999.90;;;;;;;23.28;47.61;101401.47;15665272;28;20143;-62
2021/07/19 16:25:19;;;;;;;1999.90;999.90;;;;;;;23.26;45.21;101386.81;15687061;28;20052;-60
2021/07/19 16:32:53;;;;;;;1999.90;999.90;;;;;;;23.31;46.70;101391.28;15686913;28;20041;-60
2021/07/19 16:40:25;;;;;;;1999.90;999.90;;;;;;;22.98;48.32;101389.59;15661970;28;20510;-62
2021/07/19 16:48:01;;;;;;;1999.90;999.90;;;;;;;23.24;48.26;101397.81;15675036;28;20052;-59
2021/07/19 16:55:33;;;;;;;1999.90;999.90;;;;;;;23.19;45.80;101386.81;15670264;28;20044;-62
2021/07/19 17:03:07;;;;;;;1999.90;999.90;;;;;;;22.91;47.70;101396.06;15688710;28;20040;-62
2021/07/19 17:10:40;;;;;;;1999.90;999.90;;;;;;;23.00;47.69;101398.53;15663606;28;20052;-58
2021/07/19 17:18:13;;;;;;;1999.90;999.90;;;;;;;22.96;46.94;101392.03;15684610;28;20056;-64
2021/07/19 17:25:45;;;;;;;1999.90;999.90;;;;;;;22.55;48.20;101392.25;15685403;28;20068;-64
2021/07/19 17:33:19;;;;;;;1999.90;999.90;;;;;;;22.50;47.63;101386.09;15628236;28;20041;-61
2021/07/19 17:40:52;;;;;;;1999.90;999.90;;;;;;;22.69;47.69;101388.63;15665679;28;20047;-63
2021/07/19 17:48:26;;;;;;;1999.90;999.90;;;;;;;22.39;48.55;101378.34;15665112;28;20045;-62
2021/07/19 17:55:59;;;;;;;1999.90;999.90;;;;;;;22.61;49.08;101384.13;15682269;28;20079;-63
2021/07/19 18:03:33;;;;;;;1999.90;999.90;;;;;;;22.48;48.57;101377.97;15682335;28;20084;-63
2021/07/19 18:11:07;;;;;;;1999.90;999.90;;;;;;;22.32;48.01;101368.97;15681264;28;20041;-61
2021/07/19 18:18:40;;;;;;;1999.90;999.90;;;;;;;22.19;49.88;101377.81;15681553;28;20445;-61
2021/07/19 18:26:22;;;;;;;1999.90;999.90;;;;;;;22.05;51.08;101379.75;15680650;28;20490;-61
2021/07/19 18:33:56;;;;;;;1999.90;999.90;;;;;;;21.82;50.73;101383.63;15680644;28;20037;-62
2021/07/19 18:41:28;;;;;;;1999.90;999.90;;;;;;;21.65;49.40;101377.81;15679176;28;20044;-63
2021/07/19 18:49:02;;;;;;;1999.90;999.90;;;;;;;21.50;51.63;101388.25;15679312;28;20053;-61
2021/07/19 18:56:34;;;;;;;1999.90;999.90;;;;;;;21.39;52.64;101379.63;15660668;28;20466;-60
2021/07/19 19:04:07;;;;;;;1999.90;999.90;;;;;;;20.95;52.78;101382.38;15678787;28;20398;-61
2021/07/19 19:11:40;;;;;;;1999.90;999.90;;;;;;;20.91;54.91;101382.31;15660038;28;20358;-61
2021/07/19 19:19:14;;;;;;;1999.90;999.90;;;;;;;20.74;55.86;101391.47;15677054;28;20056;-60
2021/07/19 19:26:47;;;;;;;1999.90;999.90;;;;;;;20.51;56.68;101387.91;15659312;28;20192;-60
2021/07/19 19:34:21;;;;;;;1999.90;999.90;;;;;;;20.30;55.90;101388.38;15659008;28;20045;-60
2021/07/19 19:41:53;;;;;;;1999.90;999.90;;;;;;;20.05;57.25;101399.38;15676380;28;20037;-60
2021/07/19 19:49:27;;;;;;;1999.90;999.90;;;;;;;19.89;56.46;101393.84;15680762;28;20125;-58
2021/07/19 19:56:59;;;;;;;1999.90;999.90;;;;;;;19.70;58.49;101406.09;15676460;28;20405;-60
2021/07/19 20:04:33;;;;;;;1999.90;999.90;;;;;;;19.48;59.18;101399.19;15676482;28;20122;-61
2021/07/19 20:12:06;;;;;;;1999.90;999.90;;;;;;;19.24;59.84;101399.56;15675854;28;20498;-62
2021/07/19 20:19:39;;;;;;;1999.90;999.90;;;;;;;19.03;60.19;101403.63;15675348;28;20489;-62
2021/07/19 20:27:12;;;;;;;1999.90;999.90;;;;;;;18.92;60.71;101407.44;15659491;28;20087;-63
2021/07/19 20:34:45;;;;;;;1999.90;999.90;;;;;;;18.87;60.56;101404.94;15649595;28;20052;-62
2021/07/19 20:42:17;;;;;;;1999.90;999.90;;;;;;;18.36;61.82;101411.50;15686751;28;20049;-61
2021/07/19 20:49:51;;;;;;;1999.90;999.90;;;;;;;18.13;62.06;101413.34;15685882;28;20041;-61
2021/07/19 20:57:23;;;;;;;1999.90;999.90;;;;;;;18.22;62.69;101413.16;15685887;28;20120;-61
2021/07/19 21:04:57;;;;;;;1999.90;999.90;;;;;;;18.24;63.53;101411.63;15657159;28;20521;-59
2021/07/19 21:12:29;;;;;;;1999.90;999.90;;;;;;;18.07;63.44;101420.50;15658311;28;20040;-63
2021/07/19 21:20:03;;;;;;;1999.90;999.90;;;;;;;17.89;65.25;101425.69;15662941;28;20129;-61
2021/07/19 21:27:35;;;;;;;1999.90;999.90;;;;;;;17.55;65.17;101413.94;15667132;28;20055;-59
2021/07/19 21:35:12;;;;;;;1999.90;999.90;;;;;;;17.48;66.44;101419.38;15654339;28;20067;-61
2021/07/19 21:42:45;;;;;;;1999.90;999.90;;;;;;;17.47;66.62;101426.22;15665714;28;20037;-60
2021/07/19 21:50:20;;;;;;;1999.90;999.90;;;;;;;17.37;67.19;101409.81;15658613;28;20512;-61
2021/07/19 21:57:52;;;;;;;1999.90;999.90;;;;;;;17.33;67.11;101417.38;15663039;28;20463;-62
2021/07/19 22:05:26;;;;;;;1999.90;999.90;;;;;;;17.19;68.16;101417.81;15679925;28;20132;-63
2021/07/19 22:12:59;;;;;;;1999.90;999.90;;;;;;;17.21;67.47;101418.28;15679563;28;20033;-63
2021/07/19 22:20:33;;;;;;;;;;;;;;;17.13;67.81;101412.81;15662975;28;20045;-63
2021/07/19 22:28:07;;;;;;;1999.90;999.90;;;;;;;16.95;68.46;101412.31;15645909;28;19920;-61
2021/07/19 22:35:41;;;;;;;1999.90;999.90;;;;;;;16.89;68.25;101413.75;15679886;28;20048;-62
2021/07/19 22:43:13;;;;;;;;;;;;;;;16.87;69.24;101419.72;15678285;28;20045;-59
2021/07/19 22:50:47;;;;;;;1999.90;999.90;;;;;;;16.76;69.07;101420.59;15678661;28;19967;-65
2021/07/19 22:58:19;;;;;;;1999.90;999.90;;;;;;;16.68;70.41;101408.31;15677277;28;20490;-60
2021/07/19 23:05:52;;;;;;;1999.90;999.90;;;;;;;16.70;69.96;101415.22;15673894;28;20156;-61
2021/07/19 23:13:24;;;;;;;;;;;;;;;16.95;68.88;101415.94;15652927;28;20486;-62
2021/07/19 23:20:58;;;;;;;1999.90;999.90;;;;;;;16.97;69.93;101410.75;15673839;28;19920;-64
2021/07/19 23:28:31;;;;;;;1999.90;999.90;;;;;;;17.06;69.21;101418.25;15665581;28;20056;-63
2021/07/19 23:36:05;;;;;;;1999.90;999.90;;;;;;;17.08;68.44;101413.06;15676317;28;20037;-62
2021/07/19 23:43:39;;;;;;;1999.90;999.90;;;;;;;17.21;69.57;101414.66;15674948;28;20041;-60
2021/07/19 23:51:12;;;;;;;1999.90;999.90;;;;;;;17.30;70.56;101409.66;15642002;28;20091;-61
2021/07/19 23:58:45;;;;;;;1999.90;999.90;;;;;;;17.44;69.17;101404.38;15675981;28;20041;-61
